Impacts TAF Board
For situational awareness. Not to be used for flight planning purposes.
IDs:

KMLC - McAlester Rgnl, OK, US

Issued at 0520 UTC 18 Jan 2022
Updated at 0946 UTC 18 Jan 2022
Potential Impact None Slight Moderate High
Time<<18/22Z 18/23Z 19/00Z 19/01Z 19/02Z 19/03Z 19/04Z 19/05Z 19/06Z 19/07Z 19/08Z 19/09Z 19/10Z>>
Type PRVL PRVL PRVL PRVL PRVL PRVL PRVL PRVL
VIS >6 >6 >6 >6 >6 >6 >6 >6
CIG -- -- -- -- -- -- -- --
Cover SCT SCT SCT SCT SCT SCT SCT SCT
FltCat VFR VFR VFR VFR VFR VFR VFR VFR
WX -- -- -- -- -- -- -- --
WDir 190 190 180 180 180 180 180 180
WSpd 13 13 11 11 11 11 11 11
WGst 23 23 -- -- -- -- -- --
WSHgt -- -- -- -- -- -- -- --
WSDir -- -- -- -- -- -- -- --
WSSpd -- -- -- -- -- -- -- --
R02/20
XWnd -2 -2 -4 -4 -4 -4 -4 -4 0 0 0 0 0
XGst -4 -4 -- -- -- -- -- -- -- -- -- -- --
HWnd -13 -13 -10 -10 -10 -10 -10 -10 0 0 0 0 0
HGst -23 -23 -- -- -- -- -- -- -- -- -- -- --
Raw TAF
KMLC 180520Z 1806/1906 18005KT P6SM SCT250
  FM180900 18006KT P6SM SCT250 WS015/20040KT
  FM181400 19013G23KT P6SM SCT250
  FM190000 18011KT P6SM SCT250


METAR Board
Radar Display
Forecast Discussion
For situational awareness. Not to be used for flight planning purposes.